LRAR
Conditii: VFR
METAR: LRAR 021500Z 01005KT 340V060 CAVOK 18/04 Q1010
LRBC
Conditii: VFR
METAR: LRBC 021500Z 15003KT 080V220 9999 FEW065 17/03 Q1007
LRBM
Conditii: VFR
METAR: LRBM 021500Z 30008KT 250V340 9999 BKN052 17/03 Q1008
LRBS
Conditii: VFR
METAR: LRBS 021500Z 01003KT 9999 SCT027 15/09 Q1009 R07/29//95 TEMPO 5000 SHRA SCT030CB
LRCK
Conditii: VFR
METAR: LRCK 021500Z 04010KT 9999 -RA FEW018 SCT048 12/10 Q1009 R36/29//95 NOSIG
LRCL
Conditii: VFR
METAR: LRCL 021500Z 31009KT 270V340 9999 FEW065 17/02 Q1009
LRCV
Conditii: VFR
METAR: LRCV 021500Z 06015KT 9999 FEW013 SCT035CB 14/10 Q1008
LRIA
Conditii: VFR
METAR: LRIA 021500Z 35010KT 9999 FEW050CB 14/06 Q1008
LROD
Conditii: VFR
METAR: LROD 021500Z 29009KT CAVOK 19/06 Q1009
LROP
Conditii: VFR
METAR: LROP 021500Z VRB02KT 9999 SCT030 15/08 Q1009 TEMPO 5000 SHRA SCT030CB
LRSB
Conditii: VFR
METAR: LRSB 021500Z 24006KT 9999 FEW040CB 13/05 Q1009
LRSM
Conditii: VFR
METAR: LRSM 021500Z 02020KT 9999 FEW045CB 15/06 Q1009
LRSV
Conditii: VFR
METAR: LRSV 021500Z 34013KT 9999 FEW044 13/05 Q1007
LRTM
Conditii: VFR
METAR: LRTM 021500Z 27007KT 230V320 9999 SCT040 FEW050CB 16/03 Q1008
LRTR
Conditii: VFR
METAR: LRTR 021500Z 33005KT 300V020 CAVOK 18/04 Q1010
LRTC
Conditii: VFR
METAR: LRTC 021500Z 12005KT 080V160 9999 -SHRA FEW038CB SCT045 14/07 Q1009